sensor_id;sensor_type;location;lat;lon;timestamp;pressure;altitude;pressure_sealevel;temperature
76394;BMP180;65216;51.090;-115.352;2024-02-21T00:01:26;86102.40;;;23.00
76394;BMP180;65216;51.090;-115.352;2024-02-21T00:03:53;86115.00;;;23.00
76394;BMP180;65216;51.090;-115.352;2024-02-21T00:06:19;86109.80;;;23.00
76394;BMP180;65216;51.090;-115.352;2024-02-21T00:08:46;86112.40;;;23.00
76394;BMP180;65216;51.090;-115.352;2024-02-21T00:11:13;86116.60;;;23.00
76394;BMP180;65216;51.090;-115.352;2024-02-21T00:13:42;86114.80;;;23.00
76394;BMP180;65216;51.090;-115.352;2024-02-21T00:16:09;86106.60;;;23.06
76394;BMP180;65216;51.090;-115.352;2024-02-21T00:18:37;86088.60;;;23.08
76394;BMP180;65216;51.090;-115.352;2024-02-21T00:21:04;86096.80;;;23.04
76394;BMP180;65216;51.090;-115.352;2024-02-21T00:23:31;86096.80;;;23.02
76394;BMP180;65216;51.090;-115.352;2024-02-21T00:25:58;86096.60;;;23.00
76394;BMP180;65216;51.090;-115.352;2024-02-21T00:28:25;86087.00;;;23.00
76394;BMP180;65216;51.090;-115.352;2024-02-21T00:30:52;86101.80;;;23.02
76394;BMP180;65216;51.090;-115.352;2024-02-21T00:33:20;86106.80;;;23.02
76394;BMP180;65216;51.090;-115.352;2024-02-21T00:35:53;86087.60;;;23.00
76394;BMP180;65216;51.090;-115.352;2024-02-21T00:38:19;86087.40;;;23.00
76394;BMP180;65216;51.090;-115.352;2024-02-21T00:40:48;86097.20;;;23.00
76394;BMP180;65216;51.090;-115.352;2024-02-21T00:43:15;86097.00;;;23.00
76394;BMP180;65216;51.090;-115.352;2024-02-21T00:45:42;86095.00;;;23.00
76394;BMP180;65216;51.090;-115.352;2024-02-21T00:48:09;86087.00;;;23.00
76394;BMP180;65216;51.090;-115.352;2024-02-21T00:50:36;86090.00;;;23.00
76394;BMP180;65216;51.090;-115.352;2024-02-21T00:53:04;86092.80;;;23.00
76394;BMP180;65216;51.090;-115.352;2024-02-21T00:55:31;86086.40;;;23.00
76394;BMP180;65216;51.090;-115.352;2024-02-21T00:57:58;86095.40;;;23.00
76394;BMP180;65216;51.090;-115.352;2024-02-21T01:00:26;86096.20;;;23.00
76394;BMP180;65216;51.090;-115.352;2024-02-21T01:02:54;86083.60;;;23.00
76394;BMP180;65216;51.090;-115.352;2024-02-21T01:05:21;86084.20;;;23.00
76394;BMP180;65216;51.090;-115.352;2024-02-21T01:07:49;86102.60;;;23.00
76394;BMP180;65216;51.090;-115.352;2024-02-21T01:10:16;86092.00;;;23.00
76394;BMP180;65216;51.090;-115.352;2024-02-21T01:12:43;86116.20;;;23.00
76394;BMP180;65216;51.090;-115.352;2024-02-21T01:15:10;86105.60;;;23.00
76394;BMP180;65216;51.090;-115.352;2024-02-21T01:17:38;86099.60;;;23.00
76394;BMP180;65216;51.090;-115.352;2024-02-21T01:20:07;86101.00;;;23.00
76394;BMP180;65216;51.090;-115.352;2024-02-21T01:22:34;86109.20;;;23.00
76394;BMP180;65216;51.090;-115.352;2024-02-21T01:25:01;86099.80;;;23.00
76394;BMP180;65216;51.090;-115.352;2024-02-21T01:27:28;86108.80;;;23.00
76394;BMP180;65216;51.090;-115.352;2024-02-21T01:29:58;86098.00;;;23.00
76394;BMP180;65216;51.090;-115.352;2024-02-21T01:32:24;86098.60;;;23.00
76394;BMP180;65216;51.090;-115.352;2024-02-21T01:34:52;86109.40;;;23.00
76394;BMP180;65216;51.090;-115.352;2024-02-21T01:37:23;86126.60;;;23.02
76394;BMP180;65216;51.090;-115.352;2024-02-21T01:39:50;86112.00;;;23.00
76394;BMP180;65216;51.090;-115.352;2024-02-21T01:42:17;86117.20;;;23.00
76394;BMP180;65216;51.090;-115.352;2024-02-21T01:44:43;86122.00;;;23.00
76394;BMP180;65216;51.090;-115.352;2024-02-21T01:47:12;86113.00;;;23.00
76394;BMP180;65216;51.090;-115.352;2024-02-21T01:49:41;86099.40;;;23.00
76394;BMP180;65216;51.090;-115.352;2024-02-21T01:52:14;86103.40;;;23.00
76394;BMP180;65216;51.090;-115.352;2024-02-21T01:54:43;86120.00;;;23.00
76394;BMP180;65216;51.090;-115.352;2024-02-21T01:57:13;86100.60;;;23.00
76394;BMP180;65216;51.090;-115.352;2024-02-21T01:59:41;86098.80;;;23.00
76394;BMP180;65216;51.090;-115.352;2024-02-21T02:02:08;86110.80;;;23.00
76394;BMP180;65216;51.090;-115.352;2024-02-21T02:04:38;86099.00;;;23.00
76394;BMP180;65216;51.090;-115.352;2024-02-21T02:07:07;86105.20;;;23.00
76394;BMP180;65216;51.090;-115.352;2024-02-21T02:09:37;86098.80;;;23.00
76394;BMP180;65216;51.090;-115.352;2024-02-21T02:12:06;86124.00;;;23.00
76394;BMP180;65216;51.090;-115.352;2024-02-21T02:14:33;86113.00;;;23.00
76394;BMP180;65216;51.090;-115.352;2024-02-21T02:16:59;86095.40;;;23.00
76394;BMP180;65216;51.090;-115.352;2024-02-21T02:19:27;86111.00;;;23.00
76394;BMP180;65216;51.090;-115.352;2024-02-21T02:22:10;86123.80;;;23.00
76394;BMP180;65216;51.090;-115.352;2024-02-21T02:24:39;86127.20;;;23.00
76394;BMP180;65216;51.090;-115.352;2024-02-21T02:27:08;86108.80;;;22.96
76394;BMP180;65216;51.090;-115.352;2024-02-21T02:29:35;86115.80;;;22.90
76394;BMP180;65216;51.090;-115.352;2024-02-21T02:32:02;86103.40;;;22.90
76394;BMP180;65216;51.090;-115.352;2024-02-21T02:34:29;86117.20;;;22.96
76394;BMP180;65216;51.090;-115.352;2024-02-21T02:36:57;86116.60;;;22.92
76394;BMP180;65216;51.090;-115.352;2024-02-21T02:39:24;86128.00;;;22.90
76394;BMP180;65216;51.090;-115.352;2024-02-21T02:41:50;86109.60;;;22.90
76394;BMP180;65216;51.090;-115.352;2024-02-21T02:44:17;86100.80;;;22.90
76394;BMP180;65216;51.090;-115.352;2024-02-21T02:46:47;86113.00;;;22.90
76394;BMP180;65216;51.090;-115.352;2024-02-21T02:49:14;86129.80;;;22.90
76394;BMP180;65216;51.090;-115.352;2024-02-21T02:51:46;86107.40;;;22.90
76394;BMP180;65216;51.090;-115.352;2024-02-21T02:54:15;86116.60;;;22.90
76394;BMP180;65216;51.090;-115.352;2024-02-21T02:56:41;86138.60;;;22.90
76394;BMP180;65216;51.090;-115.352;2024-02-21T02:59:09;86121.20;;;22.90
76394;BMP180;65216;51.090;-115.352;2024-02-21T03:01:36;86110.40;;;22.90
76394;BMP180;65216;51.090;-115.352;2024-02-21T03:04:06;86126.60;;;22.90
76394;BMP180;65216;51.090;-115.352;2024-02-21T03:06:33;86123.60;;;22.90
76394;BMP180;65216;51.090;-115.352;2024-02-21T03:09:00;86113.20;;;22.90
76394;BMP180;65216;51.090;-115.352;2024-02-21T03:11:27;86117.60;;;22.90
76394;BMP180;65216;51.090;-115.352;2024-02-21T03:13:56;86130.60;;;22.90
76394;BMP180;65216;51.090;-115.352;2024-02-21T03:16:26;86116.60;;;22.90
76394;BMP180;65216;51.090;-115.352;2024-02-21T03:18:52;86124.60;;;22.90
76394;BMP180;65216;51.090;-115.352;2024-02-21T03:21:19;86117.00;;;22.90
76394;BMP180;65216;51.090;-115.352;2024-02-21T03:23:46;86123.20;;;22.90
76394;BMP180;65216;51.090;-115.352;2024-02-21T03:26:16;86106.80;;;22.90
76394;BMP180;65216;51.090;-115.352;2024-02-21T03:28:45;86116.20;;;22.90
76394;BMP180;65216;51.090;-115.352;2024-02-21T03:31:12;86115.00;;;22.80
76394;BMP180;65216;51.090;-115.352;2024-02-21T03:33:43;86124.00;;;22.80
76394;BMP180;65216;51.090;-115.352;2024-02-21T03:36:16;86118.60;;;22.80
76394;BMP180;65216;51.090;-115.352;2024-02-21T03:38:43;86121.00;;;22.80
76394;BMP180;65216;51.090;-115.352;2024-02-21T03:41:11;86131.60;;;22.80
76394;BMP180;65216;51.090;-115.352;2024-02-21T03:43:40;86138.40;;;22.80
76394;BMP180;65216;51.090;-115.352;2024-02-21T03:46:07;86137.00;;;22.80
76394;BMP180;65216;51.090;-115.352;2024-02-21T03:48:37;86135.40;;;22.80
76394;BMP180;65216;51.090;-115.352;2024-02-21T03:51:05;86133.20;;;22.74
76394;BMP180;65216;51.090;-115.352;2024-02-21T03:53:31;86137.40;;;22.70
76394;BMP180;65216;51.090;-115.352;2024-02-21T03:56:02;86135.00;;;22.70
76394;BMP180;65216;51.090;-115.352;2024-02-21T03:58:31;86140.00;;;22.70
76394;BMP180;65216;51.090;-115.352;2024-02-21T04:01:00;86142.40;;;22.70
76394;BMP180;65216;51.090;-115.352;2024-02-21T04:03:31;86142.20;;;22.70
76394;BMP180;65216;51.090;-115.352;2024-02-21T04:05:58;86158.20;;;22.70
76394;BMP180;65216;51.090;-115.352;2024-02-21T04:08:24;86158.40;;;22.70
76394;BMP180;65216;51.090;-115.352;2024-02-21T04:10:52;86160.80;;;22.70
76394;BMP180;65216;51.090;-115.352;2024-02-21T04:13:18;86148.00;;;22.70
76394;BMP180;65216;51.090;-115.352;2024-02-21T04:15:45;86156.80;;;22.70
76394;BMP180;65216;51.090;-115.352;2024-02-21T04:18:12;86152.80;;;22.70
76394;BMP180;65216;51.090;-115.352;2024-02-21T04:20:39;86151.00;;;22.68
76394;BMP180;65216;51.090;-115.352;2024-02-21T04:23:06;86162.40;;;22.60
76394;BMP180;65216;51.090;-115.352;2024-02-21T04:25:32;86163.00;;;22.60
76394;BMP180;65216;51.090;-115.352;2024-02-21T04:28:00;86165.20;;;22.60
76394;BMP180;65216;51.090;-115.352;2024-02-21T04:30:27;86152.80;;;22.60
76394;BMP180;65216;51.090;-115.352;2024-02-21T04:32:54;86149.20;;;22.60
76394;BMP180;65216;51.090;-115.352;2024-02-21T04:35:21;86154.80;;;22.60
76394;BMP180;65216;51.090;-115.352;2024-02-21T04:37:50;86155.20;;;22.60
76394;BMP180;65216;51.090;-115.352;2024-02-21T04:40:18;86155.40;;;22.60
76394;BMP180;65216;51.090;-115.352;2024-02-21T04:42:44;86158.60;;;22.60
76394;BMP180;65216;51.090;-115.352;2024-02-21T04:45:11;86158.40;;;22.60
76394;BMP180;65216;51.090;-115.352;2024-02-21T04:47:38;86151.20;;;22.60
76394;BMP180;65216;51.090;-115.352;2024-02-21T04:50:08;86153.00;;;22.60
76394;BMP180;65216;51.090;-115.352;2024-02-21T04:52:35;86154.60;;;22.60
76394;BMP180;65216;51.090;-115.352;2024-02-21T04:55:02;86149.40;;;22.60
76394;BMP180;65216;51.090;-115.352;2024-02-21T04:57:29;86157.20;;;22.50
76394;BMP180;65216;51.090;-115.352;2024-02-21T04:59:56;86158.60;;;22.50
76394;BMP180;65216;51.090;-115.352;2024-02-21T05:02:23;86150.40;;;22.50
76394;BMP180;65216;51.090;-115.352;2024-02-21T05:04:51;86159.20;;;22.50
76394;BMP180;65216;51.090;-115.352;2024-02-21T05:07:20;86161.40;;;22.50
76394;BMP180;65216;51.090;-115.352;2024-02-21T05:09:47;86155.20;;;22.50
76394;BMP180;65216;51.090;-115.352;2024-02-21T05:12:14;86161.60;;;22.48
76394;BMP180;65216;51.090;-115.352;2024-02-21T05:14:40;86162.80;;;22.40
76394;BMP180;65216;51.090;-115.352;2024-02-21T05:17:07;86166.00;;;22.40
76394;BMP180;65216;51.090;-115.352;2024-02-21T05:19:34;86166.80;;;22.40
76394;BMP180;65216;51.090;-115.352;2024-02-21T05:22:01;86161.80;;;22.40
76394;BMP180;65216;51.090;-115.352;2024-02-21T05:24:27;86161.00;;;22.40
76394;BMP180;65216;51.090;-115.352;2024-02-21T05:26:56;86166.20;;;22.40
76394;BMP180;65216;51.090;-115.352;2024-02-21T05:29:23;86169.60;;;22.40
76394;BMP180;65216;51.090;-115.352;2024-02-21T05:34:20;86166.80;;;22.40
76394;BMP180;65216;51.090;-115.352;2024-02-21T05:36:47;86164.80;;;22.40
76394;BMP180;65216;51.090;-115.352;2024-02-21T05:39:16;86169.20;;;22.40
76394;BMP180;65216;51.090;-115.352;2024-02-21T05:41:44;86173.80;;;22.38
76394;BMP180;65216;51.090;-115.352;2024-02-21T05:44:14;86168.80;;;22.36
76394;BMP180;65216;51.090;-115.352;2024-02-21T05:46:47;86166.80;;;22.34
76394;BMP180;65216;51.090;-115.352;2024-02-21T05:49:16;86175.40;;;22.38
76394;BMP180;65216;51.090;-115.352;2024-02-21T05:51:43;86179.40;;;22.30
76394;BMP180;65216;51.090;-115.352;2024-02-21T05:54:10;86184.00;;;22.30
76394;BMP180;65216;51.090;-115.352;2024-02-21T05:56:36;86187.00;;;22.30
76394;BMP180;65216;51.090;-115.352;2024-02-21T05:59:03;86185.00;;;22.30
76394;BMP180;65216;51.090;-115.352;2024-02-21T06:01:30;86181.40;;;22.30
76394;BMP180;65216;51.090;-115.352;2024-02-21T06:03:57;86182.80;;;22.30
76394;BMP180;65216;51.090;-115.352;2024-02-21T06:06:24;86187.40;;;22.30
76394;BMP180;65216;51.090;-115.352;2024-02-21T06:08:51;86188.80;;;22.30
76394;BMP180;65216;51.090;-115.352;2024-02-21T06:11:18;86190.40;;;22.34
76394;BMP180;65216;51.090;-115.352;2024-02-21T06:13:44;86193.00;;;22.30
76394;BMP180;65216;51.090;-115.352;2024-02-21T06:16:11;86198.20;;;22.30
76394;BMP180;65216;51.090;-115.352;2024-02-21T06:18:38;86201.40;;;22.30
76394;BMP180;65216;51.090;-115.352;2024-02-21T06:21:08;86200.80;;;22.34
76394;BMP180;65216;51.090;-115.352;2024-02-21T06:23:40;86202.40;;;22.30
76394;BMP180;65216;51.090;-115.352;2024-02-21T06:26:07;86204.60;;;22.30
76394;BMP180;65216;51.090;-115.352;2024-02-21T06:28:36;86205.80;;;22.30
76394;BMP180;65216;51.090;-115.352;2024-02-21T06:31:03;86205.80;;;22.30
76394;BMP180;65216;51.090;-115.352;2024-02-21T06:33:30;86206.20;;;22.30
76394;BMP180;65216;51.090;-115.352;2024-02-21T06:35:57;86203.20;;;22.30
76394;BMP180;65216;51.090;-115.352;2024-02-21T06:38:26;86204.40;;;22.30
76394;BMP180;65216;51.090;-115.352;2024-02-21T06:40:56;86208.20;;;22.22
76394;BMP180;65216;51.090;-115.352;2024-02-21T06:43:24;86207.60;;;22.20
76394;BMP180;65216;51.090;-115.352;2024-02-21T06:45:51;86208.00;;;22.22
76394;BMP180;65216;51.090;-115.352;2024-02-21T06:48:18;86209.40;;;22.30
76394;BMP180;65216;51.090;-115.352;2024-02-21T06:50:46;86216.20;;;22.30
76394;BMP180;65216;51.090;-115.352;2024-02-21T06:53:13;86216.60;;;22.30
76394;BMP180;65216;51.090;-115.352;2024-02-21T06:55:40;86208.00;;;22.30
76394;BMP180;65216;51.090;-115.352;2024-02-21T06:58:07;86215.00;;;22.30
76394;BMP180;65216;51.090;-115.352;2024-02-21T07:00:39;86221.00;;;22.30
76394;BMP180;65216;51.090;-115.352;2024-02-21T07:03:06;86220.80;;;22.30
76394;BMP180;65216;51.090;-115.352;2024-02-21T07:05:33;86224.60;;;22.20
76394;BMP180;65216;51.090;-115.352;2024-02-21T07:08:00;86231.00;;;22.20
76394;BMP180;65216;51.090;-115.352;2024-02-21T07:10:28;86235.00;;;22.22
76394;BMP180;65216;51.090;-115.352;2024-02-21T07:12:55;86235.80;;;22.30
76394;BMP180;65216;51.090;-115.352;2024-02-21T07:15:22;86238.60;;;22.30
76394;BMP180;65216;51.090;-115.352;2024-02-21T07:17:49;86238.20;;;22.30
76394;BMP180;65216;51.090;-115.352;2024-02-21T07:20:15;86236.80;;;22.30
76394;BMP180;65216;51.090;-115.352;2024-02-21T07:22:42;86234.20;;;22.22
76394;BMP180;65216;51.090;-115.352;2024-02-21T07:25:09;86238.20;;;22.20
76394;BMP180;65216;51.090;-115.352;2024-02-21T07:27:36;86237.80;;;22.20
76394;BMP180;65216;51.090;-115.352;2024-02-21T07:30:04;86238.80;;;22.20
76394;BMP180;65216;51.090;-115.352;2024-02-21T07:32:31;86237.40;;;22.20
76394;BMP180;65216;51.090;-115.352;2024-02-21T07:34:58;86237.00;;;22.20
76394;BMP180;65216;51.090;-115.352;2024-02-21T07:37:27;86237.00;;;22.20
76394;BMP180;65216;51.090;-115.352;2024-02-21T07:39:54;86241.00;;;22.20
76394;BMP180;65216;51.090;-115.352;2024-02-21T07:42:21;86248.20;;;22.20
76394;BMP180;65216;51.090;-115.352;2024-02-21T07:44:48;86249.40;;;22.20
76394;BMP180;65216;51.090;-115.352;2024-02-21T07:47:14;86250.60;;;22.20
76394;BMP180;65216;51.090;-115.352;2024-02-21T07:49:44;86251.80;;;22.12
76394;BMP180;65216;51.090;-115.352;2024-02-21T07:52:12;86250.00;;;22.10
76394;BMP180;65216;51.090;-115.352;2024-02-21T07:54:39;86252.00;;;22.10
76394;BMP180;65216;51.090;-115.352;2024-02-21T07:57:06;86250.20;;;22.00
76394;BMP180;65216;51.090;-115.352;2024-02-21T07:59:36;86250.20;;;22.00
76394;BMP180;65216;51.090;-115.352;2024-02-21T08:02:03;86255.80;;;21.98
76394;BMP180;65216;51.090;-115.352;2024-02-21T08:04:35;86254.80;;;21.90
76394;BMP180;65216;51.090;-115.352;2024-02-21T08:07:02;86265.00;;;21.90
76394;BMP180;65216;51.090;-115.352;2024-02-21T08:09:33;86269.00;;;21.90
76394;BMP180;65216;51.090;-115.352;2024-02-21T08:12:01;86271.00;;;21.90
76394;BMP180;65216;51.090;-115.352;2024-02-21T08:14:28;86265.40;;;21.90
76394;BMP180;65216;51.090;-115.352;2024-02-21T08:16:55;86271.40;;;21.80
76394;BMP180;65216;51.090;-115.352;2024-02-21T08:19:22;86280.00;;;21.80
76394;BMP180;65216;51.090;-115.352;2024-02-21T08:21:49;86275.80;;;21.80
76394;BMP180;65216;51.090;-115.352;2024-02-21T08:24:16;86279.40;;;21.80
76394;BMP180;65216;51.090;-115.352;2024-02-21T08:26:44;86278.80;;;21.80
76394;BMP180;65216;51.090;-115.352;2024-02-21T08:29:12;86278.00;;;21.80
76394;BMP180;65216;51.090;-115.352;2024-02-21T08:31:39;86279.00;;;21.80
76394;BMP180;65216;51.090;-115.352;2024-02-21T08:34:06;86274.20;;;21.80
76394;BMP180;65216;51.090;-115.352;2024-02-21T08:36:36;86275.60;;;21.80
76394;BMP180;65216;51.090;-115.352;2024-02-21T08:39:03;86287.60;;;21.72
76394;BMP180;65216;51.090;-115.352;2024-02-21T08:41:34;86278.80;;;21.70
76394;BMP180;65216;51.090;-115.352;2024-02-21T08:44:04;86280.60;;;21.70
76394;BMP180;65216;51.090;-115.352;2024-02-21T08:46:31;86288.60;;;21.72
76394;BMP180;65216;51.090;-115.352;2024-02-21T08:48:58;86288.00;;;21.72
76394;BMP180;65216;51.090;-115.352;2024-02-21T08:51:25;86280.80;;;21.72
76394;BMP180;65216;51.090;-115.352;2024-02-21T08:53:55;86279.40;;;21.70
76394;BMP180;65216;51.090;-115.352;2024-02-21T08:56:22;86278.40;;;21.70
76394;BMP180;65216;51.090;-115.352;2024-02-21T08:58:49;86280.60;;;21.70
76394;BMP180;65216;51.090;-115.352;2024-02-21T09:01:16;86286.20;;;21.70
76394;BMP180;65216;51.090;-115.352;2024-02-21T09:03:43;86284.80;;;21.70
76394;BMP180;65216;51.090;-115.352;2024-02-21T09:06:11;86285.80;;;21.70
76394;BMP180;65216;51.090;-115.352;2024-02-21T09:08:39;86303.20;;;21.70
76394;BMP180;65216;51.090;-115.352;2024-02-21T09:11:07;86300.80;;;21.70
76394;BMP180;65216;51.090;-115.352;2024-02-21T09:13:33;86297.20;;;21.70
76394;BMP180;65216;51.090;-115.352;2024-02-21T09:16:00;86298.80;;;21.70
76394;BMP180;65216;51.090;-115.352;2024-02-21T09:18:27;86301.60;;;21.70
76394;BMP180;65216;51.090;-115.352;2024-02-21T09:20:57;86304.20;;;21.70
76394;BMP180;65216;51.090;-115.352;2024-02-21T09:23:30;86301.20;;;21.70
76394;BMP180;65216;51.090;-115.352;2024-02-21T09:25:58;86301.20;;;21.70
76394;BMP180;65216;51.090;-115.352;2024-02-21T09:28:26;86302.80;;;21.80
76394;BMP180;65216;51.090;-115.352;2024-02-21T09:30:53;86306.60;;;21.80
76394;BMP180;65216;51.090;-115.352;2024-02-21T09:33:20;86309.20;;;21.90
76394;BMP180;65216;51.090;-115.352;2024-02-21T09:35:47;86320.80;;;21.90
76394;BMP180;65216;51.090;-115.352;2024-02-21T09:38:14;86320.60;;;21.90
76394;BMP180;65216;51.090;-115.352;2024-02-21T09:40:41;86321.40;;;21.90
76394;BMP180;65216;51.090;-115.352;2024-02-21T09:43:08;86314.00;;;21.96
76394;BMP180;65216;51.090;-115.352;2024-02-21T09:45:35;86314.80;;;22.00
76394;BMP180;65216;51.090;-115.352;2024-02-21T09:48:39;86308.60;;;22.00
76394;BMP180;65216;51.090;-115.352;2024-02-21T09:51:10;86310.60;;;22.00
76394;BMP180;65216;51.090;-115.352;2024-02-21T09:53:43;86314.20;;;22.00
76394;BMP180;65216;51.090;-115.352;2024-02-21T09:56:12;86318.20;;;22.00
76394;BMP180;65216;51.090;-115.352;2024-02-21T09:58:39;86316.40;;;22.00
76394;BMP180;65216;51.090;-115.352;2024-02-21T10:01:07;86318.40;;;22.00
76394;BMP180;65216;51.090;-115.352;2024-02-21T10:03:35;86319.20;;;22.00
76394;BMP180;65216;51.090;-115.352;2024-02-21T10:06:01;86323.20;;;22.00
76394;BMP180;65216;51.090;-115.352;2024-02-21T10:08:29;86321.20;;;22.00
76394;BMP180;65216;51.090;-115.352;2024-02-21T10:10:55;86313.40;;;22.00
76394;BMP180;65216;51.090;-115.352;2024-02-21T10:13:30;86320.80;;;22.00
76394;BMP180;65216;51.090;-115.352;2024-02-21T10:18:36;86324.60;;;22.00
76394;BMP180;65216;51.090;-115.352;2024-02-21T10:21:07;86326.00;;;22.00
76394;BMP180;65216;51.090;-115.352;2024-02-21T10:23:49;86326.40;;;22.00
76394;BMP180;65216;51.090;-115.352;2024-02-21T10:26:20;86327.20;;;22.00
76394;BMP180;65216;51.090;-115.352;2024-02-21T10:28:47;86322.80;;;21.98
76394;BMP180;65216;51.090;-115.352;2024-02-21T10:31:27;86329.00;;;22.00
76394;BMP180;65216;51.090;-115.352;2024-02-21T10:36:29;86329.00;;;22.00
76394;BMP180;65216;51.090;-115.352;2024-02-21T10:38:56;86324.60;;;22.00
76394;BMP180;65216;51.090;-115.352;2024-02-21T10:41:27;86326.20;;;22.00
76394;BMP180;65216;51.090;-115.352;2024-02-21T10:43:56;86327.00;;;22.00
76394;BMP180;65216;51.090;-115.352;2024-02-21T10:46:24;86322.00;;;22.00
76394;BMP180;65216;51.090;-115.352;2024-02-21T10:51:43;86320.80;;;22.00
76394;BMP180;65216;51.090;-115.352;2024-02-21T10:57:04;86315.40;;;22.00
76394;BMP180;65216;51.090;-115.352;2024-02-21T10:59:33;86314.20;;;22.00
76394;BMP180;65216;51.090;-115.352;2024-02-21T11:02:01;86310.80;;;22.00
76394;BMP180;65216;51.090;-115.352;2024-02-21T11:04:30;86314.60;;;22.00
76394;BMP180;65216;51.090;-115.352;2024-02-21T11:07:00;86317.00;;;22.00
76394;BMP180;65216;51.090;-115.352;2024-02-21T11:09:32;86315.20;;;22.00
76394;BMP180;65216;51.090;-115.352;2024-02-21T11:12:03;86322.00;;;22.00
76394;BMP180;65216;51.090;-115.352;2024-02-21T11:14:33;86312.00;;;22.00
76394;BMP180;65216;51.090;-115.352;2024-02-21T11:17:16;86320.60;;;22.00
76394;BMP180;65216;51.090;-115.352;2024-02-21T11:19:44;86324.60;;;22.00
76394;BMP180;65216;51.090;-115.352;2024-02-21T11:22:20;86322.20;;;22.00
76394;BMP180;65216;51.090;-115.352;2024-02-21T11:24:48;86317.00;;;22.00
76394;BMP180;65216;51.090;-115.352;2024-02-21T11:27:22;86321.00;;;22.00
76394;BMP180;65216;51.090;-115.352;2024-02-21T11:29:58;86324.80;;;22.00
76394;BMP180;65216;51.090;-115.352;2024-02-21T11:32:26;86322.20;;;22.00
76394;BMP180;65216;51.090;-115.352;2024-02-21T11:35:04;86319.00;;;22.00
76394;BMP180;65216;51.090;-115.352;2024-02-21T11:37:32;86319.20;;;22.00
76394;BMP180;65216;51.090;-115.352;2024-02-21T11:40:00;86313.00;;;22.00
76394;BMP180;65216;51.090;-115.352;2024-02-21T11:42:30;86320.00;;;22.00
76394;BMP180;65216;51.090;-115.352;2024-02-21T11:44:59;86323.20;;;22.00
76394;BMP180;65216;51.090;-115.352;2024-02-21T11:47:29;86321.00;;;22.02
76394;BMP180;65216;51.090;-115.352;2024-02-21T11:49:59;86327.60;;;22.04
76394;BMP180;65216;51.090;-115.352;2024-02-21T11:52:26;86324.40;;;22.02
76394;BMP180;65216;51.090;-115.352;2024-02-21T11:54:54;86327.40;;;22.04
76394;BMP180;65216;51.090;-115.352;2024-02-21T11:57:24;86327.80;;;22.02
76394;BMP180;65216;51.090;-115.352;2024-02-21T11:59:51;86325.00;;;22.00
76394;BMP180;65216;51.090;-115.352;2024-02-21T12:02:21;86327.80;;;22.00
76394;BMP180;65216;51.090;-115.352;2024-02-21T12:04:48;86327.60;;;22.00
76394;BMP180;65216;51.090;-115.352;2024-02-21T12:07:15;86326.20;;;22.00
76394;BMP180;65216;51.090;-115.352;2024-02-21T12:09:42;86325.00;;;21.94
76394;BMP180;65216;51.090;-115.352;2024-02-21T12:12:09;86325.80;;;21.90
76394;BMP180;65216;51.090;-115.352;2024-02-21T12:14:36;86332.40;;;21.90
76394;BMP180;65216;51.090;-115.352;2024-02-21T12:17:05;86331.60;;;21.90
76394;BMP180;65216;51.090;-115.352;2024-02-21T12:19:33;86327.80;;;21.90
76394;BMP180;65216;51.090;-115.352;2024-02-21T12:22:03;86327.40;;;21.82
76394;BMP180;65216;51.090;-115.352;2024-02-21T12:24:32;86341.80;;;21.80
76394;BMP180;65216;51.090;-115.352;2024-02-21T12:26:59;86338.20;;;21.80
76394;BMP180;65216;51.090;-115.352;2024-02-21T12:29:26;86329.60;;;21.82
76394;BMP180;65216;51.090;-115.352;2024-02-21T12:31:53;86333.40;;;21.90
76394;BMP180;65216;51.090;-115.352;2024-02-21T12:34:21;86345.00;;;21.90
76394;BMP180;65216;51.090;-115.352;2024-02-21T12:36:50;86342.60;;;21.90
76394;BMP180;65216;51.090;-115.352;2024-02-21T12:39:18;86336.80;;;21.90
76394;BMP180;65216;51.090;-115.352;2024-02-21T12:41:44;86342.00;;;21.90
76394;BMP180;65216;51.090;-115.352;2024-02-21T12:44:12;86344.40;;;21.90
76394;BMP180;65216;51.090;-115.352;2024-02-21T12:46:39;86343.80;;;21.90
76394;BMP180;65216;51.090;-115.352;2024-02-21T12:49:08;86343.80;;;21.90
76394;BMP180;65216;51.090;-115.352;2024-02-21T12:51:38;86347.00;;;21.90
76394;BMP180;65216;51.090;-115.352;2024-02-21T12:54:05;86346.20;;;21.90
76394;BMP180;65216;51.090;-115.352;2024-02-21T12:56:32;86350.20;;;21.90
76394;BMP180;65216;51.090;-115.352;2024-02-21T12:59:01;86356.80;;;21.90
76394;BMP180;65216;51.090;-115.352;2024-02-21T13:01:28;86358.20;;;21.90
76394;BMP180;65216;51.090;-115.352;2024-02-21T13:03:55;86365.80;;;21.90
76394;BMP180;65216;51.090;-115.352;2024-02-21T13:06:24;86362.00;;;21.90
76394;BMP180;65216;51.090;-115.352;2024-02-21T13:08:51;86360.00;;;21.92
76394;BMP180;65216;51.090;-115.352;2024-02-21T13:11:18;86369.80;;;21.90
76394;BMP180;65216;51.090;-115.352;2024-02-21T13:13:48;86363.00;;;21.92
76394;BMP180;65216;51.090;-115.352;2024-02-21T13:16:15;86360.20;;;22.00
76394;BMP180;65216;51.090;-115.352;2024-02-21T13:18:42;86368.40;;;22.00
76394;BMP180;65216;51.090;-115.352;2024-02-21T13:21:09;86375.60;;;21.90
76394;BMP180;65216;51.090;-115.352;2024-02-21T13:23:37;86369.20;;;21.92
76394;BMP180;65216;51.090;-115.352;2024-02-21T13:26:04;86361.80;;;21.90
76394;BMP180;65216;51.090;-115.352;2024-02-21T13:28:30;86364.00;;;21.90
76394;BMP180;65216;51.090;-115.352;2024-02-21T13:30:57;86369.40;;;21.90
76394;BMP180;65216;51.090;-115.352;2024-02-21T13:33:24;86369.20;;;21.90
76394;BMP180;65216;51.090;-115.352;2024-02-21T13:35:51;86377.00;;;21.90
76394;BMP180;65216;51.090;-115.352;2024-02-21T13:38:19;86375.00;;;21.90
76394;BMP180;65216;51.090;-115.352;2024-02-21T13:40:45;86376.40;;;21.90
76394;BMP180;65216;51.090;-115.352;2024-02-21T13:43:15;86377.40;;;21.90
76394;BMP180;65216;51.090;-115.352;2024-02-21T13:45:57;86377.20;;;21.90
76394;BMP180;65216;51.090;-115.352;2024-02-21T13:48:29;86384.80;;;21.90
76394;BMP180;65216;51.090;-115.352;2024-02-21T13:50:56;86378.60;;;21.90